Time;durP1;ratioP1;P1;durP2;ratioP2;P2;SDS_P1;SDS_P2;PMS_P1;PMS_P2;Temp;Humidity;BMP_temperature;BMP_pressure;BME280_temperature;BME280_humidity;BME280_pressure;Samples;Min_cycle;Max_cycle;Signal;HPM_P1;HPM_P2
2023/09/18 00:01:22;;;;;;;;;;;;;;;;;;4986325;28;19979;-68
2023/09/18 00:03:48;;;;;;;;;;;;;;;;;;5002979;28;20636;-69
2023/09/18 00:06:15;;;;;;;;;;;;;;;;;;4973140;28;20314;-69
2023/09/18 00:08:41;;;;;;;;;;;;;;;;;;4985052;28;20328;-69
2023/09/18 00:11:07;;;;;;;;;;;;;;;;;;4986925;28;20036;-69
2023/09/18 00:13:35;;;;;;;;;;;;;;;;;;4987047;28;21863;-69
2023/09/18 00:16:03;;;;;;;;;;;;;;;;;;5015842;28;19925;-69
2023/09/18 00:18:32;;;;;;;;;;;;;;;;;;4982314;28;19921;-69
2023/09/18 00:20:57;;;;;;;;;;;;;;;;;;4971609;28;19928;-68
2023/09/18 00:23:26;;;;;;;;;;;;;;;;;;5004271;28;19925;-68
2023/09/18 00:25:51;;;;;;;;;;;;;;;;;;4984166;28;19948;-68
2023/09/18 00:28:16;;;;;;;;;;;;;;;;;;5001763;28;20591;-69
2023/09/18 00:30:44;;;;;;;;;;;;;;;;;;4984381;28;19980;-68
2023/09/18 00:33:09;;;;;;;;;;;;;;;;;;4986186;28;19917;-69
2023/09/18 00:35:34;;;;;;;;;;;;;;;;;;5015960;28;19925;-69
2023/09/18 00:38:03;;;;;;;;;;;;;;;;;;4988224;28;19987;-69
2023/09/18 00:40:31;;;;;;;;;;;;;;;;;;4984673;28;19924;-69
2023/09/18 00:42:57;;;;;;;;;;;;;;;;;;4987013;28;19921;-70
2023/09/18 00:45:22;;;;;;;;;;;;;;;;;;4999509;28;19943;-69
2023/09/18 00:47:48;;;;;;;;;;;;;;;;;;4981249;28;19921;-69
2023/09/18 00:50:15;;;;;;;;;;;;;;;;;;5000060;28;19917;-69
2023/09/18 00:52:43;;;;;;;;;;;;;;;;;;5001746;28;20363;-68
2023/09/18 00:55:13;;;;;;;;;;;;;;;;;;4971788;28;19964;-68
2023/09/18 00:57:38;;;;;;;;;;;;;;;;;;5002068;28;19965;-68
2023/09/18 01:00:09;;;;;;;;;;;;;;;;;;5001131;28;20043;-69
2023/09/18 01:02:34;;;;;;;;;;;;;;;;;;4999714;28;19935;-67
2023/09/18 01:04:59;;;;;;;;;;;;;;;;;;5001206;28;19921;-69
2023/09/18 01:07:25;;;;;;;;;;;;;;;;;;5003801;28;19921;-69
2023/09/18 01:09:53;;;;;;;;;;;;;;;;;;4987413;28;19917;-68
2023/09/18 01:12:19;;;;;;;;;;;;;;;;;;4982959;28;19921;-69
2023/09/18 01:14:47;;;;;;;;;;;;;;;;;;4969752;28;19943;-69
2023/09/18 01:17:15;;;;;;;;;;;;;;;;;;4982429;28;19925;-69
2023/09/18 01:19:41;;;;;;;;;;;;;;;;;;4970520;28;19922;-69
2023/09/18 01:22:07;;;;;;;;;;;;;;;;;;4999443;28;19928;-69
2023/09/18 01:24:35;;;;;;;;;;;;;;;;;;5000589;28;19932;-68
2023/09/18 01:27:00;;;;;;;;;;;;;;;;;;5000014;28;21699;-69
2023/09/18 01:29:26;;;;;;;;;;;;;;;;;;5001264;28;19925;-69
2023/09/18 01:31:54;;;;;;;;;;;;;;;;;;4999442;28;19979;-69
2023/09/18 01:34:22;;;;;;;;;;;;;;;;;;4985567;28;19926;-69
2023/09/18 01:36:47;;;;;;;;;;;;;;;;;;4973876;28;20398;-69
2023/09/18 01:39:12;;;;;;;;;;;;;;;;;;5002675;28;19917;-69
2023/09/18 01:41:38;;;;;;;;;;;;;;;;;;5002710;28;19929;-68
2023/09/18 01:44:04;;;;;;;;;;;;;;;;;;4988108;28;20375;-69
2023/09/18 01:46:32;;;;;;;;;;;;;;;;;;5018810;28;19921;-69
2023/09/18 01:48:57;;;;;;;;;;;;;;;;;;5000773;28;20040;-69
2023/09/18 01:51:27;;;;;;;;;;;;;;;;;;4985126;28;19933;-68
2023/09/18 01:53:55;;;;;;;;;;;;;;;;;;5004884;28;19921;-69
2023/09/18 01:56:20;;;;;;;;;;;;;;;;;;5001163;28;20019;-69
2023/09/18 01:58:47;;;;;;;;;;;;;;;;;;5005343;28;19924;-69
2023/09/18 02:01:15;;;;;;;;;;;;;;;;;;5001307;28;20049;-69
2023/09/18 02:03:43;;;;;;;;;;;;;;;;;;4985014;28;20115;-69
2023/09/18 02:06:08;;;;;;;;;;;;;;;;;;5005906;28;20025;-69
2023/09/18 02:08:37;;;;;;;;;;;;;;;;;;5003638;28;20064;-69
2023/09/18 02:11:05;;;;;;;;;;;;;;;;;;4991573;28;19930;-69
2023/09/18 02:13:30;;;;;;;;;;;;;;;;;;4988299;28;19949;-69
2023/09/18 02:15:58;;;;;;;;;;;;;;;;;;4969948;28;19925;-68
2023/09/18 02:18:24;;;;;;;;;;;;;;;;;;5005283;28;19921;-68
2023/09/18 02:20:49;;;;;;;;;;;;;;;;;;5001921;28;20492;-68
2023/09/18 02:23:15;;;;;;;;;;;;;;;;;;5002875;28;19967;-69
2023/09/18 02:25:40;;;;;;;;;;;;;;;;;;5002870;28;19968;-69
2023/09/18 02:28:08;;;;;;;;;;;;;;;;;;5004203;28;19917;-68
2023/09/18 02:30:39;;;;;;;;;;;;;;;;;;5005182;28;20798;-69
2023/09/18 02:33:05;;;;;;;;;;;;;;;;;;5002725;28;19967;-69
2023/09/18 02:35:32;;;;;;;;;;;;;;;;;;5004412;28;19925;-69
2023/09/18 02:38:02;;;;;;;;;;;;;;;;;;5007714;28;20114;-69
2023/09/18 02:40:33;;;;;;;;;;;;;;;;;;4989623;28;19917;-69
2023/09/18 02:43:02;;;;;;;;;;;;;;;;;;4985091;28;19925;-69
2023/09/18 02:45:27;;;;;;;;;;;;;;;;;;4987575;28;19917;-68
2023/09/18 02:47:53;;;;;;;;;;;;;;;;;;4986845;28;20542;-70
2023/09/18 02:50:18;;;;;;;;;;;;;;;;;;4988599;28;20807;-69
2023/09/18 02:52:46;;;;;;;;;;;;;;;;;;4983168;28;19917;-69
2023/09/18 02:55:14;;;;;;;;;;;;;;;;;;4989734;28;19928;-69
2023/09/18 02:57:42;;;;;;;;;;;;;;;;;;5002451;28;19920;-69
2023/09/18 03:00:08;;;;;;;;;;;;;;;;;;4980285;28;19921;-70
2023/09/18 03:02:36;;;;;;;;;;;;;;;;;;4989635;28;20493;-69
2023/09/18 03:05:02;;;;;;;;;;;;;;;;;;5017070;28;19921;-71
2023/09/18 03:07:33;;;;;;;;;;;;;;;;;;5003346;28;19976;-69
2023/09/18 03:09:58;;;;;;;;;;;;;;;;;;5004070;28;19921;-69
2023/09/18 03:12:24;;;;;;;;;;;;;;;;;;4991545;28;19944;-69
2023/09/18 03:14:54;;;;;;;;;;;;;;;;;;4986013;28;19921;-68
2023/09/18 03:17:22;;;;;;;;;;;;;;;;;;4983686;28;20014;-69
2023/09/18 03:19:48;;;;;;;;;;;;;;;;;;4990485;28;19975;-68
2023/09/18 03:22:16;;;;;;;;;;;;;;;;;;5008315;28;20020;-69
2023/09/18 03:24:41;;;;;;;;;;;;;;;;;;4988275;28;19917;-68
2023/09/18 03:27:09;;;;;;;;;;;;;;;;;;4998833;28;19928;-69
2023/09/18 03:29:34;;;;;;;;;;;;;;;;;;4988187;28;20874;-69
2023/09/18 03:32:02;;;;;;;;;;;;;;;;;;4986211;28;19921;-69
2023/09/18 03:34:33;;;;;;;;;;;;;;;;;;4971527;28;19921;-70
2023/09/18 03:37:04;;;;;;;;;;;;;;;;;;5000288;28;19968;-69
2023/09/18 03:39:30;;;;;;;;;;;;;;;;;;4989483;28;19963;-69
2023/09/18 03:41:57;;;;;;;;;;;;;;;;;;5016050;28;19925;-69
2023/09/18 03:44:25;;;;;;;;;;;;;;;;;;4985213;28;19936;-69
2023/09/18 03:46:51;;;;;;;;;;;;;;;;;;5002490;28;20016;-70
2023/09/18 03:49:16;;;;;;;;;;;;;;;;;;5003058;28;19921;-70
2023/09/18 03:51:43;;;;;;;;;;;;;;;;;;4986266;28;19924;-69
2023/09/18 03:54:11;;;;;;;;;;;;;;;;;;5002060;28;19958;-69
2023/09/18 03:56:36;;;;;;;;;;;;;;;;;;4985236;28;19925;-69
2023/09/18 03:59:01;;;;;;;;;;;;;;;;;;4983891;28;19944;-68
2023/09/18 04:01:30;;;;;;;;;;;;;;;;;;5002953;28;20001;-71
2023/09/18 04:04:00;;;;;;;;;;;;;;;;;;4985881;28;19987;-70
2023/09/18 04:06:25;;;;;;;;;;;;;;;;;;4983847;28;19956;-69
2023/09/18 04:08:51;;;;;;;;;;;;;;;;;;4989112;28;20043;-69
2023/09/18 04:11:24;;;;;;;;;;;;;;;;;;5006134;28;19917;-69
2023/09/18 04:13:50;;;;;;;;;;;;;;;;;;4987550;28;21891;-69
2023/09/18 04:16:17;;;;;;;;;;;;;;;;;;5006496;28;19975;-69
2023/09/18 04:18:43;;;;;;;;;;;;;;;;;;4999206;28;19924;-69
2023/09/18 04:21:13;;;;;;;;;;;;;;;;;;5002078;28;19967;-69
2023/09/18 04:23:41;;;;;;;;;;;;;;;;;;4988780;28;21989;-69
2023/09/18 04:26:10;;;;;;;;;;;;;;;;;;5005809;28;19917;-69
2023/09/18 04:28:35;;;;;;;;;;;;;;;;;;4988383;28;19944;-69
2023/09/18 04:31:02;;;;;;;;;;;;;;;;;;4983644;28;21759;-69
2023/09/18 04:33:33;;;;;;;;;;;;;;;;;;4984627;28;19932;-69
2023/09/18 04:36:04;;;;;;;;;;;;;;;;;;5001003;28;19932;-69
2023/09/18 04:38:35;;;;;;;;;;;;;;;;;;4988911;28;19917;-69
2023/09/18 04:41:06;;;;;;;;;;;;;;;;;;5002104;28;19929;-70
2023/09/18 04:43:33;;;;;;;;;;;;;;;;;;5005284;28;19928;-69
2023/09/18 04:45:58;;;;;;;;;;;;;;;;;;5005145;28;19917;-69
2023/09/18 04:48:23;;;;;;;;;;;;;;;;;;5001973;28;19956;-69
2023/09/18 04:50:49;;;;;;;;;;;;;;;;;;4987605;28;20427;-69
2023/09/18 04:53:14;;;;;;;;;;;;;;;;;;4971871;28;20376;-69
2023/09/18 04:55:41;;;;;;;;;;;;;;;;;;4997651;28;19925;-69
2023/09/18 04:58:09;;;;;;;;;;;;;;;;;;4990239;28;21878;-69
2023/09/18 05:00:34;;;;;;;;;;;;;;;;;;4983220;28;20002;-69
2023/09/18 05:03:03;;;;;;;;;;;;;;;;;;4998351;28;20329;-69
2023/09/18 05:05:29;;;;;;;;;;;;;;;;;;5003210;28;19971;-68
2023/09/18 05:07:54;;;;;;;;;;;;;;;;;;4972393;28;19928;-69
2023/09/18 05:10:22;;;;;;;;;;;;;;;;;;4988530;28;19918;-69
2023/09/18 05:12:50;;;;;;;;;;;;;;;;;;4985271;28;20920;-67
2023/09/18 05:15:16;;;;;;;;;;;;;;;;;;4999974;28;20599;-69
2023/09/18 05:17:44;;;;;;;;;;;;;;;;;;4997798;28;19947;-68
2023/09/18 05:20:12;;;;;;;;;;;;;;;;;;4985419;28;20702;-69
2023/09/18 05:22:37;;;;;;;;;;;;;;;;;;4984250;28;19922;-68
2023/09/18 05:25:02;;;;;;;;;;;;;;;;;;4991071;28;20490;-69
2023/09/18 05:27:28;;;;;;;;;;;;;;;;;;4980538;28;19963;-69
2023/09/18 05:29:56;;;;;;;;;;;;;;;;;;4989600;28;19928;-68
2023/09/18 05:32:24;;;;;;;;;;;;;;;;;;4993126;28;19941;-69
2023/09/18 05:34:49;;;;;;;;;;;;;;;;;;4978901;28;19924;-69
2023/09/18 05:37:20;;;;;;;;;;;;;;;;;;4975028;28;19927;-67
2023/09/18 05:39:48;;;;;;;;;;;;;;;;;;4979266;28;19917;-69
2023/09/18 05:42:16;;;;;;;;;;;;;;;;;;4976965;28;19952;-69
2023/09/18 05:44:45;;;;;;;;;;;;;;;;;;4962629;28;19960;-69
2023/09/18 05:47:13;;;;;;;;;;;;;;;;;;5000677;28;20024;-69
2023/09/18 05:49:40;;;;;;;;;;;;;;;;;;5002479;28;19924;-69
2023/09/18 05:52:06;;;;;;;;;;;;;;;;;;5016450;28;19921;-69
2023/09/18 05:54:34;;;;;;;;;;;;;;;;;;5005218;28;19928;-68
2023/09/18 05:57:02;;;;;;;;;;;;;;;;;;4997655;28;19932;-68
2023/09/18 05:59:27;;;;;;;;;;;;;;;;;;4983550;28;19921;-69
2023/09/18 06:01:55;;;;;;;;;;;;;;;;;;4987226;28;19921;-68
2023/09/18 06:04:26;;;;;;;;;;;;;;;;;;4979333;28;19921;-67
2023/09/18 06:06:52;;;;;;;;;;;;;;;;;;4980968;28;19921;-68
2023/09/18 06:09:18;;;;;;;;;;;;;;;;;;4973986;28;19924;-69
2023/09/18 06:11:43;;;;;;;;;;;;;;;;;;4997101;28;19976;-70
2023/09/18 06:14:08;;;;;;;;;;;;;;;;;;4996754;28;20047;-68
2023/09/18 06:16:38;;;;;;;;;;;;;;;;;;4996222;28;19925;-69
2023/09/18 06:19:04;;;;;;;;;;;;;;;;;;4983290;28;19921;-71
2023/09/18 06:21:29;;;;;;;;;;;;;;;;;;4980614;28;19939;-67
2023/09/18 06:23:54;;;;;;;;;;;;;;;;;;4994357;28;19921;-68
2023/09/18 06:26:21;;;;;;;;;;;;;;;;;;5000694;28;19929;-68
2023/09/18 06:28:47;;;;;;;;;;;;;;;;;;4997522;28;20317;-68
2023/09/18 06:31:12;;;;;;;;;;;;;;;;;;4984668;28;19917;-68
2023/09/18 06:33:40;;;;;;;;;;;;;;;;;;4977443;28;19928;-68
2023/09/18 06:36:08;;;;;;;;;;;;;;;;;;4977289;28;20032;-67
2023/09/18 06:38:36;;;;;;;;;;;;;;;;;;4995358;28;19921;-68
2023/09/18 06:41:04;;;;;;;;;;;;;;;;;;4995228;28;19960;-68
2023/09/18 06:43:32;;;;;;;;;;;;;;;;;;4999789;28;19933;-68
2023/09/18 06:46:03;;;;;;;;;;;;;;;;;;4976411;28;19917;-68
2023/09/18 06:48:32;;;;;;;;;;;;;;;;;;4995819;28;19917;-67
2023/09/18 06:51:02;;;;;;;;;;;;;;;;;;4982749;28;20395;-67
2023/09/18 06:53:27;;;;;;;;;;;;;;;;;;4982036;28;19991;-67
2023/09/18 06:55:53;;;;;;;;;;;;;;;;;;4997782;28;19952;-67
2023/09/18 06:58:21;;;;;;;;;;;;;;;;;;4998450;28;20467;-68
2023/09/18 07:00:46;;;;;;;;;;;;;;;;;;4982586;28;19917;-69
2023/09/18 07:03:11;;;;;;;;;;;;;;;;;;4999412;28;19922;-69
2023/09/18 07:05:37;;;;;;;;;;;;;;;;;;4981482;28;19921;-68
2023/09/18 07:08:02;;;;;;;;;;;;;;;;;;5007597;28;19921;-69
2023/09/18 07:10:31;;;;;;;;;;;;;;;;;;4993698;28;20625;-66
2023/09/18 07:12:56;;;;;;;;;;;;;;;;;;4994989;28;19921;-65
2023/09/18 07:15:21;;;;;;;;;;;;;;;;;;4980161;28;20127;-66
2023/09/18 07:17:48;;;;;;;;;;;;;;;;;;4996384;28;19932;-66
2023/09/18 07:20:18;;;;;;;;;;;;;;;;;;4978278;28;19967;-67
2023/09/18 07:22:46;;;;;;;;;;;;;;;;;;4996730;28;19928;-65
2023/09/18 07:25:14;;;;;;;;;;;;;;;;;;4979775;28;19993;-66
2023/09/18 07:27:45;;;;;;;;;;;;;;;;;;4982966;28;19916;-66
2023/09/18 07:30:16;;;;;;;;;;;;;;;;;;4979280;28;19929;-66
2023/09/18 07:32:42;;;;;;;;;;;;;;;;;;4995547;28;19975;-65
2023/09/18 07:35:07;;;;;;;;;;;;;;;;;;4976521;28;20822;-67
2023/09/18 07:37:32;;;;;;;;;;;;;;;;;;4996699;28;20000;-68
2023/09/18 07:39:57;;;;;;;;;;;;;;;;;;4993802;28;19956;-67
2023/09/18 07:42:23;;;;;;;;;;;;;;;;;;4975576;28;19936;-69
2023/09/18 07:44:48;;;;;;;;;;;;;;;;;;5009966;28;19963;-70
2023/09/18 07:47:16;;;;;;;;;;;;;;;;;;4978650;28;20375;-69
2023/09/18 07:49:41;;;;;;;;;;;;;;;;;;4993453;28;19947;-69
2023/09/18 07:52:07;;;;;;;;;;;;;;;;;;4979996;28;19980;-69
2023/09/18 07:54:32;;;;;;;;;;;;;;;;;;4975380;28;20000;-69
2023/09/18 07:56:58;;;;;;;;;;;;;;;;;;4978981;28;19952;-68
2023/09/18 07:59:25;;;;;;;;;;;;;;;;;;4981530;28;19921;-68
2023/09/18 08:01:51;;;;;;;;;;;;;;;;;;4976410;28;19921;-68
2023/09/18 08:04:19;;;;;;;;;;;;;;;;;;4990138;28;19917;-67
2023/09/18 08:06:45;;;;;;;;;;;;;;;;;;4980841;28;19924;-66
2023/09/18 08:09:15;;;;;;;;;;;;;;;;;;4974134;28;19932;-65
2023/09/18 08:11:42;;;;;;;;;;;;;;;;;;4958673;28;19916;-65
2023/09/18 08:14:07;;;;;;;;;;;;;;;;;;4978796;28;20261;-65
2023/09/18 08:16:33;;;;;;;;;;;;;;;;;;4993301;28;19933;-64
2023/09/18 08:19:01;;;;;;;;;;;;;;;;;;4980784;28;19987;-64
2023/09/18 08:21:31;;;;;;;;;;;;;;;;;;4974556;28;19945;-63
2023/09/18 08:23:57;;;;;;;;;;;;;;;;;;4993224;28;21300;-65
2023/09/18 08:26:25;;;;;;;;;;;;;;;;;;4980276;28;20012;-65
2023/09/18 08:28:50;;;;;;;;;;;;;;;;;;4979610;28;19947;-65
2023/09/18 08:31:18;;;;;;;;;;;;;;;;;;4996839;28;20470;-68
2023/09/18 08:33:44;;;;;;;;;;;;;;;;;;4976926;28;20744;-66
2023/09/18 08:36:09;;;;;;;;;;;;;;;;;;4998361;28;19925;-66
2023/09/18 08:38:34;;;;;;;;;;;;;;;;;;4974812;28;20378;-67
2023/09/18 08:41:02;;;;;;;;;;;;;;;;;;4979057;28;20388;-66
2023/09/18 08:43:28;;;;;;;;;;;;;;;;;;4978945;28;19921;-66
2023/09/18 08:45:53;;;;;;;;;;;;;;;;;;4978699;28;19925;-66
2023/09/18 08:48:21;;;;;;;;;;;;;;;;;;4980188;28;19999;-64
2023/09/18 08:50:47;;;;;;;;;;;;;;;;;;4975896;28;19920;-65
2023/09/18 08:53:14;;;;;;;;;;;;;;;;;;4997258;28;19947;-64
2023/09/18 08:55:42;;;;;;;;;;;;;;;;;;4988673;28;20473;-64
2023/09/18 08:58:10;;;;;;;;;;;;;;;;;;4980168;28;19962;-64
2023/09/18 09:00:35;;;;;;;;;;;;;;;;;;4991406;28;20447;-63
2023/09/18 09:03:03;;;;;;;;;;;;;;;;;;4982669;28;19917;-63
2023/09/18 09:05:31;;;;;;;;;;;;;;;;;;4994930;28;19921;-63
2023/09/18 09:07:56;;;;;;;;;;;;;;;;;;4979983;28;19921;-62
2023/09/18 09:10:25;;;;;;;;;;;;;;;;;;5009245;28;20012;-64
2023/09/18 09:12:51;;;;;;;;;;;;;;;;;;4978722;28;19936;-64
2023/09/18 09:15:16;;;;;;;;;;;;;;;;;;4993755;28;21871;-64
2023/09/18 09:17:41;;;;;;;;;;;;;;;;;;4978369;28;19921;-65
2023/09/18 09:20:12;;;;;;;;;;;;;;;;;;4992761;28;20937;-63
2023/09/18 09:22:40;;;;;;;;;;;;;;;;;;4977976;28;19967;-62
2023/09/18 09:25:05;;;;;;;;;;;;;;;;;;4981190;28;19921;-64
2023/09/18 09:27:36;;;;;;;;;;;;;;;;;;4992809;28;19925;-65
2023/09/18 09:30:05;;;;;;;;;;;;;;;;;;4991223;28;19995;-63
2023/09/18 09:32:30;;;;;;;;;;;;;;;;;;4979531;28;20059;-63
2023/09/18 09:34:55;;;;;;;;;;;;;;;;;;4990844;28;19924;-63
2023/09/18 09:37:20;;;;;;;;;;;;;;;;;;4981806;28;19972;-63
2023/09/18 09:39:47;;;;;;;;;;;;;;;;;;4992446;28;20387;-63
2023/09/18 09:42:18;;;;;;;;;;;;;;;;;;4992345;28;19929;-63
2023/09/18 09:44:43;;;;;;;;;;;;;;;;;;4993323;28;20015;-63
2023/09/18 09:47:08;;;;;;;;;;;;;;;;;;4980452;28;19936;-64
2023/09/18 09:49:37;;;;;;;;;;;;;;;;;;4992485;28;25396;-62
2023/09/18 09:52:05;;;;;;;;;;;;;;;;;;4982836;28;19916;-63
2023/09/18 09:54:39;;;;;;;;;;;;;;;;;;4996584;28;20222;-63
2023/09/18 09:57:05;;;;;;;;;;;;;;;;;;4996949;28;19925;-64
2023/09/18 09:59:35;;;;;;;;;;;;;;;;;;4994453;28;19959;-62
2023/09/18 10:02:05;;;;;;;;;;;;;;;;;;4996375;28;21152;-64
2023/09/18 10:04:31;;;;;;;;;;;;;;;;;;4997363;28;20031;-63
2023/09/18 10:06:56;;;;;;;;;;;;;;;;;;4981218;28;19917;-65
2023/09/18 10:09:24;;;;;;;;;;;;;;;;;;4996492;28;19923;-63
2023/09/18 10:11:52;;;;;;;;;;;;;;;;;;4996801;28;22033;-63
2023/09/18 10:14:22;;;;;;;;;;;;;;;;;;4997574;28;19932;-64
2023/09/18 10:16:50;;;;;;;;;;;;;;;;;;4998294;28;19928;-63
2023/09/18 10:19:21;;;;;;;;;;;;;;;;;;4992594;28;20060;-63
2023/09/18 10:21:48;;;;;;;;;;;;;;;;;;4989396;28;20059;-64
2023/09/18 10:24:16;;;;;;;;;;;;;;;;;;5002036;28;19917;-63
2023/09/18 10:26:41;;;;;;;;;;;;;;;;;;4997805;28;19925;-62
2023/09/18 10:29:08;;;;;;;;;;;;;;;;;;4981765;28;19968;-63
2023/09/18 10:31:34;;;;;;;;;;;;;;;;;;4996492;28;19940;-62
2023/09/18 10:34:02;;;;;;;;;;;;;;;;;;5001049;28;20567;-65
2023/09/18 10:36:28;;;;;;;;;;;;;;;;;;4992356;28;19932;-62
2023/09/18 10:38:56;;;;;;;;;;;;;;;;;;4976320;28;19983;-62
2023/09/18 10:41:21;;;;;;;;;;;;;;;;;;4995865;28;19940;-64
2023/09/18 10:43:50;;;;;;;;;;;;;;;;;;4982808;28;19928;-63
2023/09/18 10:46:18;;;;;;;;;;;;;;;;;;4996682;28;19933;-64
2023/09/18 10:48:43;;;;;;;;;;;;;;;;;;4981621;28;20051;-64
2023/09/18 10:51:13;;;;;;;;;;;;;;;;;;4976183;28;21813;-63
2023/09/18 10:53:41;;;;;;;;;;;;;;;;;;4996438;28;19917;-63
2023/09/18 10:56:09;;;;;;;;;;;;;;;;;;4995221;28;21782;-63
2023/09/18 10:58:41;;;;;;;;;;;;;;;;;;4997913;28;19921;-64
2023/09/18 11:01:06;;;;;;;;;;;;;;;;;;4979132;28;19962;-64
2023/09/18 11:03:31;;;;;;;;;;;;;;;;;;4997283;28;20425;-62
2023/09/18 11:05:57;;;;;;;;;;;;;;;;;;4994120;28;19921;-64
2023/09/18 11:08:25;;;;;;;;;;;;;;;;;;4964473;28;19917;-63
2023/09/18 11:10:54;;;;;;;;;;;;;;;;;;4978104;28;19928;-64
2023/09/18 11:13:25;;;;;;;;;;;;;;;;;;4994558;28;20488;-63
2023/09/18 11:15:53;;;;;;;;;;;;;;;;;;4977369;28;19921;-64
2023/09/18 11:18:18;;;;;;;;;;;;;;;;;;4995354;28;20072;-64
2023/09/18 11:20:46;;;;;;;;;;;;;;;;;;4995060;28;19932;-62
2023/09/18 11:23:14;;;;;;;;;;;;;;;;;;4998974;28;19928;-63
2023/09/18 11:25:47;;;;;;;;;;;;;;;;;;4979393;28;19952;-62
2023/09/18 11:28:12;;;;;;;;;;;;;;;;;;4980380;28;19987;-62
2023/09/18 11:30:41;;;;;;;;;;;;;;;;;;4998614;28;19928;-62
2023/09/18 11:33:07;;;;;;;;;;;;;;;;;;4998262;28;21111;-62
2023/09/18 11:35:33;;;;;;;;;;;;;;;;;;4977975;28;19924;-62
2023/09/18 11:38:01;;;;;;;;;;;;;;;;;;4977937;28;19925;-63
2023/09/18 11:40:26;;;;;;;;;;;;;;;;;;4978266;28;20032;-62
2023/09/18 11:42:59;;;;;;;;;;;;;;;;;;4980565;28;19933;-62
2023/09/18 11:45:27;;;;;;;;;;;;;;;;;;4994066;28;20575;-63
2023/09/18 11:47:54;;;;;;;;;;;;;;;;;;4976592;28;19921;-62
2023/09/18 11:50:21;;;;;;;;;;;;;;;;;;4978200;28;19925;-62
2023/09/18 11:52:47;;;;;;;;;;;;;;;;;;4996191;28;19921;-62
2023/09/18 11:55:14;;;;;;;;;;;;;;;;;;4975089;28;19917;-63
2023/09/18 11:57:42;;;;;;;;;;;;;;;;;;4978855;28;19921;-63
2023/09/18 12:00:12;;;;;;;;;;;;;;;;;;4994235;28;19929;-62
2023/09/18 12:02:45;;;;;;;;;;;;;;;;;;4995724;28;19928;-62
2023/09/18 12:05:13;;;;;;;;;;;;;;;;;;4991029;28;20601;-62
2023/09/18 12:07:38;;;;;;;;;;;;;;;;;;4980961;28;20039;-62
2023/09/18 12:10:07;;;;;;;;;;;;;;;;;;4979050;28;19963;-62
2023/09/18 12:12:34;;;;;;;;;;;;;;;;;;4996585;28;20048;-62
2023/09/18 12:15:03;;;;;;;;;;;;;;;;;;4977263;28;19921;-63
2023/09/18 12:17:29;;;;;;;;;;;;;;;;;;4964468;28;20375;-62
2023/09/18 12:19:54;;;;;;;;;;;;;;;;;;4993089;28;20016;-64
2023/09/18 12:22:22;;;;;;;;;;;;;;;;;;4975635;28;19931;-62
2023/09/18 12:24:49;;;;;;;;;;;;;;;;;;4991423;28;19925;-63
2023/09/18 12:27:18;;;;;;;;;;;;;;;;;;4979139;28;19924;-65
2023/09/18 12:29:47;;;;;;;;;;;;;;;;;;4996590;28;19969;-63
2023/09/18 12:32:15;;;;;;;;;;;;;;;;;;4965929;28;20080;-63
2023/09/18 12:34:40;;;;;;;;;;;;;;;;;;4978207;28;20277;-63
2023/09/18 12:37:06;;;;;;;;;;;;;;;;;;4979517;28;21878;-63
2023/09/18 12:39:31;;;;;;;;;;;;;;;;;;4981003;28;19974;-64
2023/09/18 12:42:02;;;;;;;;;;;;;;;;;;4978867;28;19929;-63
2023/09/18 12:44:28;;;;;;;;;;;;;;;;;;4991308;28;20879;-64
2023/09/18 12:46:53;;;;;;;;;;;;;;;;;;4995311;28;19960;-61
2023/09/18 12:49:18;;;;;;;;;;;;;;;;;;4994784;28;20047;-61
2023/09/18 12:51:44;;;;;;;;;;;;;;;;;;4981527;28;20015;-62
2023/09/18 12:54:13;;;;;;;;;;;;;;;;;;4977454;28;19927;-61
2023/09/18 12:56:38;;;;;;;;;;;;;;;;;;4998251;28;20396;-62
2023/09/18 12:59:06;;;;;;;;;;;;;;;;;;5008481;28;20040;-62
2023/09/18 13:01:31;;;;;;;;;;;;;;;;;;4978874;28;20654;-64
2023/09/18 13:03:56;;;;;;;;;;;;;;;;;;4977523;28;20386;-62
2023/09/18 13:06:27;;;;;;;;;;;;;;;;;;4979378;28;19970;-61
2023/09/18 13:08:53;;;;;;;;;;;;;;;;;;4979460;28;21030;-66
2023/09/18 13:11:18;;;;;;;;;;;;;;;;;;4976802;28;19921;-63
2023/09/18 13:13:45;;;;;;;;;;;;;;;;;;4992642;28;19959;-63
2023/09/18 13:16:11;;;;;;;;;;;;;;;;;;4992933;28;19920;-64
2023/09/18 13:18:36;;;;;;;;;;;;;;;;;;4993429;28;21246;-62
2023/09/18 13:21:05;;;;;;;;;;;;;;;;;;4989975;28;20001;-63
2023/09/18 13:23:33;;;;;;;;;;;;;;;;;;4990567;28;19921;-64
2023/09/18 13:25:58;;;;;;;;;;;;;;;;;;4996080;28;20036;-63
2023/09/18 13:28:23;;;;;;;;;;;;;;;;;;4981265;28;20885;-62
2023/09/18 13:30:49;;;;;;;;;;;;;;;;;;5001982;28;20443;-63
2023/09/18 13:33:15;;;;;;;;;;;;;;;;;;4995028;28;19929;-62
2023/09/18 13:35:44;;;;;;;;;;;;;;;;;;4983474;28;20009;-62
2023/09/18 13:38:10;;;;;;;;;;;;;;;;;;4995547;28;19933;-62
2023/09/18 13:40:37;;;;;;;;;;;;;;;;;;4999463;28;19924;-63
2023/09/18 13:43:03;;;;;;;;;;;;;;;;;;4966934;28;19948;-61
2023/09/18 13:45:29;;;;;;;;;;;;;;;;;;4982858;28;19917;-62
2023/09/18 13:47:54;;;;;;;;;;;;;;;;;;4997898;28;19928;-62
2023/09/18 13:50:20;;;;;;;;;;;;;;;;;;4981234;28;20467;-62
2023/09/18 13:52:45;;;;;;;;;;;;;;;;;;4983145;28;19928;-63
2023/09/18 13:55:10;;;;;;;;;;;;;;;;;;4982880;28;19928;-63
2023/09/18 13:57:36;;;;;;;;;;;;;;;;;;4984737;28;19921;-64
2023/09/18 14:00:09;;;;;;;;;;;;;;;;;;4997408;28;19971;-62
2023/09/18 14:02:34;;;;;;;;;;;;;;;;;;4981207;28;25064;-63
2023/09/18 14:05:00;;;;;;;;;;;;;;;;;;4977147;28;20552;-63
2023/09/18 14:07:30;;;;;;;;;;;;;;;;;;4994342;28;21177;-64
2023/09/18 14:10:03;;;;;;;;;;;;;;;;;;4981594;28;19960;-63
2023/09/18 14:12:34;;;;;;;;;;;;;;;;;;4981088;28;19927;-64
2023/09/18 14:14:59;;;;;;;;;;;;;;;;;;4994995;28;19925;-62
2023/09/18 14:17:30;;;;;;;;;;;;;;;;;;4997544;28;19928;-62
2023/09/18 14:19:55;;;;;;;;;;;;;;;;;;4982938;28;19991;-62
2023/09/18 14:22:20;;;;;;;;;;;;;;;;;;4982459;28;20403;-62
2023/09/18 14:24:45;;;;;;;;;;;;;;;;;;4966851;28;20075;-63
2023/09/18 14:27:14;;;;;;;;;;;;;;;;;;4998996;28;19921;-62
2023/09/18 14:29:42;;;;;;;;;;;;;;;;;;4993338;28;20363;-63
2023/09/18 14:32:10;;;;;;;;;;;;;;;;;;4983638;28;19928;-63
2023/09/18 14:34:38;;;;;;;;;;;;;;;;;;4981939;28;19923;-63
2023/09/18 14:37:08;;;;;;;;;;;;;;;;;;4993487;28;19925;-62
2023/09/18 14:39:34;;;;;;;;;;;;;;;;;;4980323;28;19917;-63
2023/09/18 14:42:05;;;;;;;;;;;;;;;;;;4981741;28;19929;-64
2023/09/18 14:44:33;;;;;;;;;;;;;;;;;;4981616;28;19967;-65
2023/09/18 14:46:59;;;;;;;;;;;;;;;;;;4979184;28;19917;-63
2023/09/18 14:49:30;;;;;;;;;;;;;;;;;;5011182;28;19927;-63
2023/09/18 14:51:55;;;;;;;;;;;;;;;;;;4965131;28;19918;-64
2023/09/18 14:54:21;;;;;;;;;;;;;;;;;;5010718;28;19921;-62
2023/09/18 15:00:05;;;;;;;;;;;;;;;;;;4994870;28;19924;-62
2023/09/18 15:02:34;;;;;;;;;;;;;;;;;;4977991;28;20019;-63
2023/09/18 15:05:00;;;;;;;;;;;;;;;;;;4980439;28;19917;-62
2023/09/18 15:07:26;;;;;;;;;;;;;;;;;;4980759;28;19935;-63
2023/09/18 15:09:51;;;;;;;;;;;;;;;;;;4993614;28;19928;-62
2023/09/18 15:12:20;;;;;;;;;;;;;;;;;;4977560;28;19928;-62
2023/09/18 15:14:45;;;;;;;;;;;;;;;;;;4980501;28;19933;-62
2023/09/18 15:17:16;;;;;;;;;;;;;;;;;;4997537;28;22182;-61
2023/09/18 15:19:42;;;;;;;;;;;;;;;;;;4997505;28;20374;-62
2023/09/18 15:22:07;;;;;;;;;;;;;;;;;;4996527;28;19921;-63
2023/09/18 15:24:35;;;;;;;;;;;;;;;;;;4997684;28;20024;-62
2023/09/18 15:27:00;;;;;;;;;;;;;;;;;;4993064;28;19928;-61
2023/09/18 15:29:30;;;;;;;;;;;;;;;;;;4995835;28;19931;-61
2023/09/18 15:31:59;;;;;;;;;;;;;;;;;;4994720;28;19928;-62
2023/09/18 15:34:25;;;;;;;;;;;;;;;;;;4995626;28;19921;-62
2023/09/18 15:36:52;;;;;;;;;;;;;;;;;;4964021;28;19925;-61
2023/09/18 15:39:17;;;;;;;;;;;;;;;;;;4999055;28;19944;-62
2023/09/18 15:41:42;;;;;;;;;;;;;;;;;;4993805;28;19925;-63
2023/09/18 15:44:10;;;;;;;;;;;;;;;;;;4976097;28;19922;-62
2023/09/18 15:46:35;;;;;;;;;;;;;;;;;;4977293;28;20580;-63
2023/09/18 15:49:04;;;;;;;;;;;;;;;;;;4978983;28;20061;-62
2023/09/18 15:51:29;;;;;;;;;;;;;;;;;;4994921;28;19921;-63
2023/09/18 15:53:54;;;;;;;;;;;;;;;;;;4977928;28;19921;-62
2023/09/18 15:56:20;;;;;;;;;;;;;;;;;;4986744;28;19921;-62
2023/09/18 15:58:45;;;;;;;;;;;;;;;;;;4988993;28;19922;-62
2023/09/18 16:01:11;;;;;;;;;;;;;;;;;;4985623;28;19921;-62
2023/09/18 16:03:37;;;;;;;;;;;;;;;;;;4994935;28;20468;-64
2023/09/18 16:06:06;;;;;;;;;;;;;;;;;;4979104;28;20039;-62
2023/09/18 16:08:37;;;;;;;;;;;;;;;;;;4981096;28;19979;-63
2023/09/18 16:11:02;;;;;;;;;;;;;;;;;;4982416;28;19947;-63
2023/09/18 16:13:27;;;;;;;;;;;;;;;;;;4999525;28;19928;-62
2023/09/18 16:15:52;;;;;;;;;;;;;;;;;;4969436;28;19966;-64
2023/09/18 16:18:20;;;;;;;;;;;;;;;;;;5016826;28;19935;-62
2023/09/18 16:20:48;;;;;;;;;;;;;;;;;;5002595;28;20115;-62
2023/09/18 16:23:14;;;;;;;;;;;;;;;;;;5002743;28;20369;-63
2023/09/18 16:25:42;;;;;;;;;;;;;;;;;;5001197;28;20375;-62
2023/09/18 16:28:07;;;;;;;;;;;;;;;;;;4999731;28;19921;-63
2023/09/18 16:30:35;;;;;;;;;;;;;;;;;;4978246;28;20474;-62
2023/09/18 16:33:00;;;;;;;;;;;;;;;;;;4986499;28;20361;-62
2023/09/18 16:35:29;;;;;;;;;;;;;;;;;;4983173;28;19994;-63
2023/09/18 16:37:55;;;;;;;;;;;;;;;;;;4999596;28;19921;-63
2023/09/18 16:40:20;;;;;;;;;;;;;;;;;;4983559;28;19991;-65
2023/09/18 16:42:48;;;;;;;;;;;;;;;;;;4996968;28;19929;-63
2023/09/18 16:45:15;;;;;;;;;;;;;;;;;;4982107;28;19917;-63
2023/09/18 16:47:43;;;;;;;;;;;;;;;;;;4980686;28;19921;-62